Time;durP1;ratioP1;P1;durP2;ratioP2;P2;SDS_P1;SDS_P2;PMS_P1;PMS_P2;Temp;Humidity;BMP_temperature;BMP_pressure;BME280_temperature;BME280_humidity;BME280_pressure;Samples;Min_cycle;Max_cycle;Signal;HPM_P1;HPM_P2
2022/08/24 00:00:07;;;;;;;5.93;3.85;;;17.90;99.90;;;;;;5023430;28;20041;-75
2022/08/24 00:02:33;;;;;;;5.38;3.50;;;17.90;99.90;;;;;;5027639;28;20079;-75
2022/08/24 00:05:00;;;;;;;4.07;3.67;;;17.80;99.90;;;;;;5019686;28;20483;-77
2022/08/24 00:07:25;;;;;;;4.25;3.75;;;17.70;99.90;;;;;;5028070;28;20390;-77
2022/08/24 00:09:51;;;;;;;6.25;3.72;;;17.60;99.90;;;;;;5021189;28;20018;-77
2022/08/24 00:12:17;;;;;;;5.32;3.80;;;17.60;99.90;;;;;;5025706;28;20097;-74
2022/08/24 00:14:43;;;;;;;5.13;3.88;;;17.50;99.90;;;;;;5022943;28;20076;-76
2022/08/24 00:17:09;;;;;;;4.45;3.80;;;17.60;99.90;;;;;;5022793;28;20391;-76
2022/08/24 00:19:35;;;;;;;6.60;3.60;;;17.50;99.90;;;;;;5022023;28;20026;-78
2022/08/24 00:22:01;;;;;;;5.50;3.70;;;17.50;99.90;;;;;;5024074;28;20029;-77
2022/08/24 00:24:27;;;;;;;5.32;3.53;;;17.50;99.90;;;;;;5019042;28;20086;-78
2022/08/24 00:26:53;;;;;;;7.25;3.80;;;17.40;99.90;;;;;;5024462;28;20100;-77
2022/08/24 00:29:20;;;;;;;4.78;3.58;;;17.30;99.90;;;;;;5024813;28;20030;-79
2022/08/24 00:31:46;;;;;;;5.22;3.72;;;17.20;99.90;;;;;;5023923;28;20013;-77
2022/08/24 00:34:12;;;;;;;5.20;4.00;;;17.20;99.90;;;;;;5022559;28;20018;-77
2022/08/24 00:36:39;;;;;;;4.60;4.07;;;17.30;99.90;;;;;;5022622;28;20026;-77
2022/08/24 00:39:05;;;;;;;5.85;4.18;;;17.10;99.90;;;;;;5021533;28;20018;-76
2022/08/24 00:41:31;;;;;;;5.78;4.10;;;17.30;99.90;;;;;;5026050;28;20108;-79
2022/08/24 00:44:02;;;;;;;4.28;3.60;;;17.00;99.90;;;;;;5026314;28;20136;-78
2022/08/24 00:46:41;;;;;;;4.88;3.70;;;17.30;99.90;;;;;;5011262;28;20029;-76
2022/08/24 00:49:34;;;;;;;6.88;4.20;;;17.10;99.90;;;;;;5010687;28;20049;-76
2022/08/24 00:52:09;;;;;;;8.32;4.45;;;17.00;99.90;;;;;;5011176;28;20026;-76
2022/08/24 00:54:39;;;;;;;10.27;4.07;;;16.70;99.90;;;;;;5014084;28;20041;-78
2022/08/24 00:57:09;;;;;;;5.63;4.47;;;16.70;99.90;;;;;;5016747;28;20033;-77
2022/08/24 00:59:57;;;;;;;6.38;4.68;;;16.60;99.90;;;;;;5015557;28;20037;-76
2022/08/24 01:02:28;;;;;;;4.90;4.13;;;16.40;99.90;;;;;;5014492;28;20029;-79
2022/08/24 01:05:00;;;;;;;5.80;4.50;;;16.20;99.90;;;;;;5016575;28;20385;-79
2022/08/24 01:07:29;;;;;;;4.80;4.30;;;16.20;99.90;;;;;;5015766;28;20514;-78
2022/08/24 01:09:58;;;;;;;6.07;4.53;;;16.30;99.90;;;;;;5019568;28;20125;-77
2022/08/24 01:12:25;;;;;;;5.10;4.15;;;16.00;99.90;;;;;;5037236;28;20029;-78
2022/08/24 01:14:52;;;;;;;5.47;4.40;;;16.20;99.90;;;;;;5034594;28;20053;-76
2022/08/24 01:20:05;;;;;;;6.07;5.03;;;16.30;99.90;;;;;;5037670;28;20036;-77
2022/08/24 01:23:01;;;;;;;4.95;4.40;;;16.50;99.90;;;;;;5040826;28;20037;-76
2022/08/24 01:25:29;;;;;;;6.80;5.10;;;16.60;99.90;;;;;;5034019;28;20391;-75
2022/08/24 01:27:59;;;;;;;5.13;4.50;;;16.40;99.90;;;;;;5033676;28;20021;-74
2022/08/24 01:30:26;;;;;;;5.45;4.68;;;16.30;99.90;;;;;;5033729;28;20025;-75
2022/08/24 01:33:00;;;;;;;5.18;4.30;;;16.40;99.90;;;;;;5034297;28;20367;-75
2022/08/24 01:35:27;;;;;;;5.05;4.55;;;16.40;99.90;;;;;;5018417;28;20029;-75
2022/08/24 01:37:54;;;;;;;5.63;4.72;;;16.30;99.90;;;;;;5013801;28;20369;-75
2022/08/24 01:40:23;;;;;;;7.60;4.88;;;16.00;99.90;;;;;;5011129;28;20018;-76
2022/08/24 01:42:50;;;;;;;6.47;4.70;;;15.90;99.90;;;;;;5009518;28;20121;-76
2022/08/24 01:45:17;;;;;;;5.65;4.65;;;15.90;99.90;;;;;;5012259;28;20021;-76
2022/08/24 01:47:42;;;;;;;5.68;4.90;;;15.80;99.90;;;;;;5026719;28;20028;-76
2022/08/24 01:50:08;;;;;;;5.07;4.40;;;15.90;99.90;;;;;;5021528;28;20020;-76
2022/08/24 01:52:37;;;;;;;7.00;4.85;;;15.90;99.90;;;;;;5018998;28;20026;-77
2022/08/24 01:55:06;;;;;;;5.95;5.18;;;15.80;99.90;;;;;;5021603;28;20045;-76
2022/08/24 01:57:32;;;;;;;5.43;4.90;;;15.80;99.90;;;;;;5024514;28;20026;-77
2022/08/24 01:59:57;;;;;;;6.07;4.97;;;16.00;99.90;;;;;;5018111;28;20028;-77
2022/08/24 02:02:27;;;;;;;6.20;5.45;;;16.10;99.90;;;;;;5016779;28;20040;-77
2022/08/24 02:04:52;;;;;;;8.50;5.97;;;16.10;99.90;;;;;;5021026;28;20028;-77
2022/08/24 02:07:18;;;;;;;7.00;5.20;;;16.20;99.90;;;;;;5027396;28;20025;-76
2022/08/24 02:09:44;;;;;;;6.05;5.38;;;16.20;99.90;;;;;;5024917;28;20521;-76
2022/08/24 02:12:10;;;;;;;6.97;5.30;;;16.00;99.90;;;;;;5025263;28;20117;-76
2022/08/24 02:14:36;;;;;;;7.43;5.22;;;16.00;99.90;;;;;;5022593;28;20035;-77
2022/08/24 02:17:04;;;;;;;10.88;5.93;;;16.10;99.90;;;;;;5023393;28;20083;-76
2022/08/24 02:19:29;;;;;;;7.97;5.30;;;16.00;99.90;;;;;;5019734;28;20032;-76
2022/08/24 02:21:55;;;;;;;7.50;4.95;;;16.10;99.90;;;;;;5024849;28;20108;-76
2022/08/24 02:24:20;;;;;;;6.72;5.75;;;16.10;99.90;;;;;;5024720;28;20101;-76
2022/08/24 02:26:47;;;;;;;7.85;5.30;;;16.00;99.90;;;;;;5023051;28;20028;-76
2022/08/24 02:29:12;;;;;;;6.95;5.70;;;16.00;99.90;;;;;;5028247;28;20018;-76
2022/08/24 02:31:38;;;;;;;6.20;5.38;;;15.50;99.90;;;;;;5024490;28;20029;-76
2022/08/24 02:34:04;;;;;;;6.13;5.22;;;15.10;99.90;;;;;;5026955;28;20034;-76
2022/08/24 02:36:30;;;;;;;6.68;5.50;;;15.30;99.90;;;;;;5027956;28;20030;-76
2022/08/24 02:38:56;;;;;;;6.28;5.38;;;15.70;99.90;;;;;;5021084;28;20033;-76
2022/08/24 02:41:23;;;;;;;8.18;5.65;;;15.60;99.90;;;;;;5029171;28;20111;-76
2022/08/24 02:43:49;;;;;;;6.80;5.82;;;15.80;99.90;;;;;;5016204;28;20026;-76
2022/08/24 02:46:20;;;;;;;6.88;5.38;;;15.90;99.90;;;;;;5025820;28;20034;-76
2022/08/24 02:48:46;;;;;;;6.82;5.93;;;15.90;99.90;;;;;;5024353;28;20380;-77
2022/08/24 02:51:26;;;;;;;8.38;6.30;;;15.80;99.90;;;;;;5033077;28;20702;-76
2022/08/24 02:53:52;;;;;;;6.35;5.70;;;15.90;99.90;;;;;;5023317;28;20018;-76
2022/08/24 02:56:19;;;;;;;7.15;5.88;;;16.00;99.90;;;;;;5016828;28;20033;-76
2022/08/24 02:58:46;;;;;;;8.52;5.75;;;16.00;99.90;;;;;;5027998;28;20028;-76
2022/08/24 03:01:12;;;;;;;6.65;5.85;;;15.90;99.90;;;;;;5024242;28;20033;-76
2022/08/24 03:03:39;;;;;;;6.55;5.90;;;16.00;99.90;;;;;;5023340;28;20030;-77
2022/08/24 03:06:06;;;;;;;6.75;5.95;;;15.90;99.90;;;;;;5023987;28;20022;-76
2022/08/24 03:08:32;;;;;;;6.28;5.68;;;15.80;99.90;;;;;;5023956;28;20372;-77
2022/08/24 03:10:59;;;;;;;7.10;5.63;;;15.70;99.90;;;;;;5028408;28;20014;-77
2022/08/24 03:13:26;;;;;;;6.97;5.95;;;15.60;99.90;;;;;;5022249;28;20010;-77
2022/08/24 03:15:54;;;;;;;6.53;5.80;;;15.30;99.90;;;;;;5027999;28;20090;-77
2022/08/24 03:18:20;;;;;;;6.97;5.78;;;15.30;99.90;;;;;;5021332;28;20468;-76
2022/08/24 03:20:46;;;;;;;6.60;6.00;;;15.30;99.90;;;;;;5027367;28;20360;-76
2022/08/24 03:23:12;;;;;;;6.90;6.20;;;15.30;99.90;;;;;;5027129;28;20029;-76
2022/08/24 03:25:38;;;;;;;7.68;6.70;;;15.00;99.90;;;;;;5021477;28;20032;-76
2022/08/24 03:28:04;;;;;;;8.20;6.82;;;14.80;99.90;;;;;;5026327;28;20025;-78
2022/08/24 03:30:30;;;;;;;6.78;6.10;;;14.70;99.90;;;;;;5023859;28;20124;-77
2022/08/24 03:32:55;;;;;;;8.07;7.03;;;14.80;99.90;;;;;;5032519;28;20021;-77
2022/08/24 03:35:21;;;;;;;7.78;6.43;;;14.80;99.90;;;;;;5023378;28;20116;-78
2022/08/24 03:37:48;;;;;;;9.30;6.32;;;15.20;99.90;;;;;;5025772;28;20028;-78
2022/08/24 03:40:14;;;;;;;7.97;6.97;;;15.20;99.90;;;;;;5025345;28;20398;-78
2022/08/24 03:42:40;;;;;;;8.77;6.47;;;15.00;99.90;;;;;;5023986;28;20094;-79
2022/08/24 03:45:07;;;;;;;8.65;7.05;;;15.00;99.90;;;;;;5019429;28;20068;-78
2022/08/24 03:47:32;;;;;;;9.15;6.82;;;14.70;99.90;;;;;;5020651;28;20029;-76
2022/08/24 03:49:58;;;;;;;8.90;6.90;;;14.70;99.90;;;;;;5021697;28;20022;-76
2022/08/24 03:52:24;;;;;;;7.38;6.30;;;14.70;99.90;;;;;;5028373;28;20034;-77
2022/08/24 03:54:49;;;;;;;9.52;7.25;;;14.70;99.90;;;;;;5031560;28;20009;-77
2022/08/24 03:57:15;;;;;;;8.75;7.38;;;14.70;99.90;;;;;;5013111;28;20025;-78
2022/08/24 03:59:40;;;;;;;10.57;7.30;;;14.70;99.90;;;;;;5031826;28;20025;-78
2022/08/24 04:02:06;;;;;;;8.43;7.55;;;14.80;99.90;;;;;;5026284;28;20023;-76
2022/08/24 04:04:31;;;;;;;8.10;7.38;;;14.90;99.90;;;;;;5022012;28;20030;-76
2022/08/24 04:06:57;;;;;;;8.80;7.38;;;14.70;99.90;;;;;;5024520;28;20021;-76
2022/08/24 04:09:24;;;;;;;8.63;6.88;;;14.80;99.90;;;;;;5023382;28;20387;-77
2022/08/24 04:11:49;;;;;;;7.88;6.47;;;14.80;99.90;;;;;;5028466;28;20033;-77
2022/08/24 04:14:16;;;;;;;10.65;7.22;;;14.90;99.90;;;;;;5026505;28;20127;-77
2022/08/24 04:16:44;;;;;;;9.57;7.30;;;15.00;99.90;;;;;;5020862;28;20495;-78
2022/08/24 04:19:10;;;;;;;9.15;6.90;;;15.10;99.90;;;;;;5016310;28;20022;-79
2022/08/24 04:21:36;;;;;;;8.27;7.53;;;14.80;99.90;;;;;;5018247;28;20041;-78
2022/08/24 04:24:04;;;;;;;9.18;7.13;;;14.70;99.90;;;;;;5015678;28;20022;-77
2022/08/24 04:26:30;;;;;;;10.45;8.13;;;14.80;99.90;;;;;;5017539;28;20029;-76
2022/08/24 04:28:57;;;;;;;8.68;7.68;;;14.90;99.90;;;;;;5011294;28;20093;-76
2022/08/24 04:31:23;;;;;;;8.52;7.72;;;14.80;99.90;;;;;;5015097;28;20372;-77
2022/08/24 04:33:50;;;;;;;9.57;7.88;;;14.90;99.90;;;;;;5026567;28;20010;-77
2022/08/24 04:36:18;;;;;;;9.23;8.23;;;15.00;99.90;;;;;;5029246;28;20045;-78
2022/08/24 04:38:43;;;;;;;8.90;8.10;;;15.10;99.90;;;;;;5013846;28;20022;-78
2022/08/24 04:41:13;;;;;;;10.48;8.25;;;15.00;99.90;;;;;;5028181;28;20017;-78
2022/08/24 04:43:41;;;;;;;9.27;8.25;;;14.90;99.90;;;;;;5014186;28;20060;-77
2022/08/24 04:46:08;;;;;;;9.45;7.95;;;15.10;99.90;;;;;;4997345;28;20023;-77
2022/08/24 04:48:34;;;;;;;10.50;8.63;;;15.30;99.90;;;;;;5010225;28;20499;-77
2022/08/24 04:51:05;;;;;;;10.75;8.25;;;15.30;99.90;;;;;;5024842;28;20026;-76
2022/08/24 04:53:32;;;;;;;10.20;8.18;;;15.40;99.90;;;;;;5015011;28;20428;-75
2022/08/24 04:55:59;;;;;;;10.98;9.02;;;15.20;99.90;;;;;;5024328;28;20365;-76
2022/08/24 04:58:26;;;;;;;9.32;8.43;;;15.20;99.90;;;;;;5020692;28;20052;-75
2022/08/24 05:00:52;;;;;;;9.27;8.32;;;15.10;99.90;;;;;;5020564;28;20096;-76
2022/08/24 05:03:18;;;;;;;10.73;7.80;;;15.00;99.90;;;;;;5026692;28;20480;-76
2022/08/24 05:05:46;;;;;;;8.27;7.47;;;15.20;99.90;;;;;;5021360;28;20037;-76
2022/08/24 05:08:12;;;;;;;12.40;7.85;;;15.40;99.90;;;;;;5029856;28;20059;-75
2022/08/24 05:10:40;;;;;;;9.15;7.78;;;15.30;99.90;;;;;;5024159;28;20380;-75
2022/08/24 05:13:07;;;;;;;10.85;7.60;;;15.50;99.90;;;;;;5013244;28;20014;-75
2022/08/24 05:15:34;;;;;;;11.27;8.45;;;15.40;99.90;;;;;;5014480;28;20392;-75
2022/08/24 05:18:01;;;;;;;9.77;7.95;;;15.70;99.90;;;;;;5014373;28;20021;-75
2022/08/24 05:20:27;;;;;;;10.05;8.30;;;15.80;99.90;;;;;;5014639;28;20381;-74
2022/08/24 05:22:54;;;;;;;9.73;8.40;;;15.90;99.90;;;;;;5018123;28;20029;-71
2022/08/24 05:25:20;;;;;;;8.60;7.80;;;16.00;99.90;;;;;;5034143;28;20076;-75
2022/08/24 05:27:46;;;;;;;11.05;8.35;;;16.10;99.90;;;;;;5016653;28;20030;-75
2022/08/24 05:30:12;;;;;;;10.40;8.52;;;16.30;99.90;;;;;;5014250;28;20105;-75
2022/08/24 05:32:38;;;;;;;10.70;8.80;;;16.10;99.90;;;;;;5027461;28;20029;-75
2022/08/24 05:35:05;;;;;;;10.13;7.93;;;16.20;99.90;;;;;;5014111;28;20034;-75
2022/08/24 05:37:34;;;;;;;12.05;8.43;;;16.30;99.90;;;;;;5031115;28;20364;-75
2022/08/24 05:40:02;;;;;;;9.48;8.10;;;16.40;99.90;;;;;;5022698;28;20037;-74
2022/08/24 05:42:27;;;;;;;9.85;8.25;;;16.30;99.90;;;;;;5006793;28;20022;-74
2022/08/24 05:44:53;;;;;;;9.85;8.38;;;16.40;99.90;;;;;;5009489;28;20183;-74
2022/08/24 05:47:19;;;;;;;9.00;7.95;;;16.60;99.90;;;;;;4999125;28;20032;-74
2022/08/24 05:49:44;;;;;;;11.27;7.95;;;16.80;99.90;;;;;;5011929;28;20102;-74
2022/08/24 05:52:10;;;;;;;10.60;8.00;;;16.70;99.90;;;;;;5012198;28;20026;-75
2022/08/24 05:54:36;;;;;;;9.30;8.23;;;16.70;99.90;;;;;;5018335;28;20026;-74
2022/08/24 05:57:03;;;;;;;10.27;7.93;;;17.00;99.90;;;;;;5017870;28;20029;-74
2022/08/24 05:59:30;;;;;;;9.02;8.07;;;17.20;99.90;;;;;;5025328;28;20475;-74
2022/08/24 06:01:55;;;;;;;9.85;7.80;;;17.30;99.90;;;;;;5019795;28;20038;-75
2022/08/24 06:04:21;;;;;;;9.40;7.97;;;17.50;99.90;;;;;;5021892;28;20018;-75
2022/08/24 06:06:47;;;;;;;9.20;8.30;;;17.60;99.90;;;;;;5017944;28;20032;-75
2022/08/24 06:09:13;;;;;;;8.85;7.95;;;17.70;99.90;;;;;;5021981;28;20026;-75
2022/08/24 06:11:40;;;;;;;9.38;8.32;;;17.90;99.90;;;;;;5026662;28;20024;-75
2022/08/24 06:14:11;;;;;;;8.15;7.35;;;18.00;99.90;;;;;;5013811;28;20026;-74
2022/08/24 06:16:40;;;;;;;9.20;7.40;;;18.10;99.90;;;;;;5032434;28;20116;-74
2022/08/24 06:19:08;;;;;;;7.45;6.63;;;18.30;99.90;;;;;;5028846;28;20030;-75
2022/08/24 06:21:33;;;;;;;8.32;7.43;;;18.30;99.90;;;;;;5013288;28;20088;-75
2022/08/24 06:24:00;;;;;;;11.90;7.78;;;18.30;99.90;;;;;;5026109;28;20022;-75
2022/08/24 06:29:11;;;;;;;8.38;7.47;;;18.50;99.90;;;;;;5022119;28;20052;-75
2022/08/24 06:31:40;;;;;;;9.27;7.03;;;18.60;99.90;;;;;;5021377;28;20029;-75
2022/08/24 06:34:07;;;;;;;9.02;7.22;;;18.80;99.90;;;;;;5021828;28;20018;-75
2022/08/24 06:36:32;;;;;;;8.48;7.57;;;18.80;99.90;;;;;;5013040;28;20117;-75
2022/08/24 06:38:58;;;;;;;9.35;7.10;;;18.80;99.90;;;;;;5024770;28;20065;-75
2022/08/24 06:41:25;;;;;;;9.98;8.82;;;19.00;99.90;;;;;;5011659;28;20088;-75
2022/08/24 06:43:51;;;;;;;10.93;8.55;;;19.00;99.90;;;;;;5014369;28;20080;-75
2022/08/24 06:46:17;;;;;;;11.00;8.05;;;19.10;99.90;;;;;;5016648;28;20037;-75
2022/08/24 06:48:43;;;;;;;9.90;8.07;;;19.20;99.90;;;;;;5014425;28;20113;-75
2022/08/24 06:51:15;;;;;;;8.75;7.85;;;19.20;99.90;;;;;;5028107;28;20022;-75
2022/08/24 06:53:41;;;;;;;10.55;8.07;;;19.50;99.90;;;;;;5025997;28;20025;-75
2022/08/24 06:56:08;;;;;;;9.45;7.97;;;19.60;99.90;;;;;;5023388;28;20425;-76
2022/08/24 06:58:34;;;;;;;9.05;7.82;;;19.60;99.90;;;;;;5013768;28;20417;-75
2022/08/24 07:01:11;;;;;;;10.05;8.07;;;19.60;99.90;;;;;;5023074;28;20033;-75
2022/08/24 07:03:37;;;;;;;10.20;8.80;;;19.70;99.90;;;;;;5013614;28;20034;-75
2022/08/24 07:06:04;;;;;;;9.30;8.13;;;19.50;99.90;;;;;;5012361;28;20440;-76
2022/08/24 07:08:29;;;;;;;9.55;8.05;;;19.80;99.90;;;;;;5012178;28;20611;-75
2022/08/24 07:10:55;;;;;;;15.55;8.70;;;19.90;99.90;;;;;;5012228;28;20097;-75
2022/08/24 07:13:21;;;;;;;11.07;8.10;;;19.90;99.90;;;;;;5019975;28;20053;-75
2022/08/24 07:15:49;;;;;;;11.70;8.30;;;20.00;99.90;;;;;;5021164;28;20615;-75
2022/08/24 07:18:16;;;;;;;10.65;7.93;;;20.00;99.90;;;;;;5012073;28;20022;-75
2022/08/24 07:20:42;;;;;;;14.13;9.23;;;19.90;99.90;;;;;;5022043;28;20504;-75
2022/08/24 07:23:10;;;;;;;8.18;7.05;;;20.10;99.90;;;;;;5021180;28;20025;-75
2022/08/24 07:25:35;;;;;;;10.32;7.75;;;20.20;99.90;;;;;;5031902;28;20025;-75
2022/08/24 07:28:01;;;;;;;7.70;6.85;;;20.40;99.90;;;;;;5024597;28;20030;-75
2022/08/24 07:30:27;;;;;;;8.00;6.50;;;20.40;99.90;;;;;;5022287;28;20026;-75
2022/08/24 07:32:55;;;;;;;8.02;6.65;;;20.50;99.90;;;;;;5025601;28;20586;-78
2022/08/24 07:35:21;;;;;;;7.57;6.50;;;20.60;99.90;;;;;;5027728;28;20045;-79
2022/08/24 07:37:47;;;;;;;7.10;6.40;;;20.60;99.90;;;;;;5021911;28;20029;-79
2022/08/24 07:40:12;;;;;;;8.95;6.20;;;20.50;99.90;;;;;;5021707;28;20077;-78
2022/08/24 07:42:41;;;;;;;7.22;5.97;;;20.80;99.90;;;;;;5026650;28;20032;-78
2022/08/24 07:45:07;;;;;;;11.38;6.70;;;20.90;99.90;;;;;;5014943;28;20053;-79
2022/08/24 07:47:33;;;;;;;9.25;6.18;;;20.90;99.90;;;;;;4993467;28;20034;-78
2022/08/24 07:49:59;;;;;;;6.97;5.90;;;21.10;99.90;;;;;;5013047;28;20033;-79
2022/08/24 07:52:24;;;;;;;7.15;5.70;;;21.30;99.90;;;;;;5027489;28;20029;-79
2022/08/24 07:54:50;;;;;;;8.95;6.18;;;21.30;99.90;;;;;;5027004;28;20443;-78
2022/08/24 07:57:16;;;;;;;8.85;6.25;;;21.30;99.90;;;;;;5026089;28;20104;-79
2022/08/24 07:59:42;;;;;;;8.15;5.70;;;21.40;99.90;;;;;;5013240;28;20029;-78
2022/08/24 08:02:09;;;;;;;7.15;5.70;;;21.40;99.90;;;;;;5021716;28;20037;-79
2022/08/24 08:04:35;;;;;;;7.82;5.75;;;21.60;99.90;;;;;;5023943;28;20022;-79
2022/08/24 08:07:01;;;;;;;7.20;5.43;;;21.60;99.90;;;;;;5018346;28;20041;-80
2022/08/24 08:09:27;;;;;;;8.85;5.88;;;21.60;99.90;;;;;;5032834;28;20024;-79
2022/08/24 08:11:53;;;;;;;10.75;5.30;;;21.60;99.90;;;;;;5025532;28;20025;-79
2022/08/24 08:14:19;;;;;;;6.65;4.93;;;21.90;99.90;;;;;;5025238;28;20037;-79
2022/08/24 08:16:44;;;;;;;7.47;5.60;;;22.00;99.90;;;;;;5020280;28;20029;-79
2022/08/24 08:19:10;;;;;;;6.88;5.60;;;22.00;99.90;;;;;;5029851;28;20149;-78
2022/08/24 08:24:33;;;;;;;9.57;5.20;;;22.20;99.90;;;;;;5022353;28;20033;-78
2022/08/24 08:26:59;;;;;;;6.85;4.90;;;22.50;99.90;;;;;;5024608;28;20383;-77
2022/08/24 08:29:25;;;;;;;6.72;5.13;;;22.60;99.90;;;;;;5032041;28;20025;-77
2022/08/24 08:31:52;;;;;;;8.35;5.47;;;22.80;99.90;;;;;;5023536;28;20036;-78
2022/08/24 08:34:18;;;;;;;8.07;5.40;;;22.80;99.90;;;;;;5030706;28;20057;-77
2022/08/24 08:36:44;;;;;;;6.40;5.18;;;22.90;99.90;;;;;;5025121;28;20049;-77
2022/08/24 08:39:12;;;;;;;5.38;4.72;;;23.00;99.90;;;;;;5020013;28;20030;-77
2022/08/24 08:42:09;;;;;;;6.85;5.10;;;23.00;99.90;;;;;;5023305;28;20025;-76
2022/08/24 08:45:02;;;;;;;6.93;4.78;;;23.10;99.90;;;;;;5004887;28;20038;-76
2022/08/24 08:47:52;;;;;;;6.07;5.43;;;23.20;99.90;;;;;;5007997;28;20030;-77
2022/08/24 08:50:28;;;;;;;6.57;4.70;;;23.30;99.90;;;;;;5019774;28;20018;-77
2022/08/24 08:53:31;;;;;;;7.88;5.03;;;23.20;99.90;;;;;;5015033;28;20365;-77
2022/08/24 08:56:14;;;;;;;5.63;4.75;;;23.40;99.90;;;;;;5023579;28;20451;-76
2022/08/24 08:59:00;;;;;;;6.60;5.10;;;23.40;99.90;;;;;;5021162;28;20026;-76
2022/08/24 09:01:28;;;;;;;9.45;4.93;;;23.40;99.90;;;;;;5033435;28;20068;-76
2022/08/24 09:04:16;;;;;;;5.50;4.93;;;23.50;99.90;;;;;;5013542;28;20073;-76
2022/08/24 09:06:56;;;;;;;7.28;4.90;;;23.50;99.90;;;;;;5018750;28;20533;-77
2022/08/24 09:09:44;;;;;;;11.40;5.38;;;23.50;99.90;;;;;;5034468;28;20032;-76
2022/08/24 09:12:29;;;;;;;6.15;4.75;;;23.60;99.90;;;;;;5012707;28;20021;-77
2022/08/24 09:15:31;;;;;;;5.32;4.82;;;23.90;99.90;;;;;;5015670;28;20026;-76
2022/08/24 09:18:08;;;;;;;5.55;4.97;;;24.00;99.90;;;;;;5027782;28;20531;-76
2022/08/24 09:20:43;;;;;;;5.53;4.97;;;23.90;99.90;;;;;;5025923;28;20033;-76
2022/08/24 09:23:26;;;;;;;5.20;4.38;;;23.90;99.90;;;;;;5019634;28;20033;-76
2022/08/24 09:26:16;;;;;;;5.43;4.88;;;24.00;99.90;;;;;;5032315;28;20030;-76
2022/08/24 09:29:02;;;;;;;8.20;4.53;;;24.10;99.90;;;;;;5012971;28;20022;-76
2022/08/24 09:32:02;;;;;;;5.35;4.47;;;24.20;99.90;;;;;;5000938;28;20026;-77
2022/08/24 09:34:35;;;;;;;5.47;4.72;;;24.50;99.90;;;;;;5014290;28;20029;-77
2022/08/24 09:37:18;;;;;;;4.85;4.40;;;24.60;99.90;;;;;;5013908;28;20030;-76
2022/08/24 09:40:22;;;;;;;7.40;4.38;;;24.50;99.90;;;;;;5014158;28;20124;-77
2022/08/24 09:43:35;;;;;;;5.40;4.30;;;24.70;99.90;;;;;;5000657;28;20022;-76
2022/08/24 09:46:31;;;;;;;5.25;4.28;;;24.50;99.90;;;;;;5007110;28;20403;-76
2022/08/24 09:49:15;;;;;;;4.38;3.97;;;24.70;99.90;;;;;;5027134;28;20022;-76
2022/08/24 09:52:01;;;;;;;4.28;3.72;;;24.90;99.90;;;;;;5021852;28;20022;-77
2022/08/24 09:54:38;;;;;;;4.80;3.97;;;25.10;99.90;;;;;;5023501;28;20080;-76
2022/08/24 09:57:13;;;;;;;4.65;4.13;;;25.10;99.90;;;;;;5012225;28;20053;-76
2022/08/24 10:00:12;;;;;;;4.40;3.92;;;25.00;99.90;;;;;;5025230;28;20025;-76
2022/08/24 10:02:54;;;;;;;4.80;3.58;;;24.90;99.90;;;;;;5014778;28;20124;-76
2022/08/24 10:05:25;;;;;;;6.40;3.50;;;25.20;99.90;;;;;;5013735;28;20038;-76
2022/08/24 10:08:05;;;;;;;4.78;3.50;;;25.20;99.90;;;;;;5013907;28;20030;-76
2022/08/24 10:11:01;;;;;;;6.63;4.03;;;25.30;99.90;;;;;;5023795;28;20018;-76
2022/08/24 10:14:12;;;;;;;3.90;3.30;;;25.30;99.90;;;;;;5006300;28;20033;-76
2022/08/24 10:17:08;;;;;;;5.13;3.97;;;25.50;99.90;;;;;;5026911;28;20044;-76
2022/08/24 10:19:49;;;;;;;4.70;4.30;;;25.70;99.90;;;;;;5013318;28;20108;-76
2022/08/24 10:22:34;;;;;;;5.60;4.40;;;25.50;99.90;;;;;;5013330;28;20030;-76
2022/08/24 10:25:27;;;;;;;4.57;3.33;;;25.50;99.90;;;;;;5001944;28;20030;-76
2022/08/24 10:28:01;;;;;;;4.90;3.97;;;25.70;99.90;;;;;;5012004;28;20029;-76
2022/08/24 10:31:04;;;;;;;4.93;3.40;;;25.70;99.90;;;;;;5026365;28;20029;-76
2022/08/24 10:33:37;;;;;;;4.43;3.80;;;25.70;99.90;;;;;;5016825;28;20064;-76
2022/08/24 10:36:21;;;;;;;4.20;3.80;;;26.00;99.90;;;;;;5013703;28;20021;-76
2022/08/24 10:43:32;;;;;;;5.20;3.97;;;26.10;99.90;;;;;;5026062;28;20056;-76
2022/08/24 10:45:26;;;;;;;4.85;3.70;;;26.20;99.90;;;;;;5026516;28;20022;-78
2022/08/24 10:48:25;;;;;;;4.22;3.47;;;26.20;99.90;;;;;;5022781;28;20608;-77
2022/08/24 10:51:17;;;;;;;4.35;3.95;;;26.80;99.90;;;;;;5002281;28;20069;-77
2022/08/24 10:53:49;;;;;;;4.20;3.65;;;26.70;99.90;;;;;;5030418;28;20048;-76
2022/08/24 10:56:18;;;;;;;3.95;3.60;;;26.50;99.90;;;;;;5032827;28;20029;-77
2022/08/24 10:59:02;;;;;;;8.63;3.88;;;26.40;99.90;;;;;;5019746;28;20402;-76
2022/08/24 11:01:32;;;;;;;4.88;3.50;;;26.70;99.90;;;;;;5030921;28;20033;-76
2022/08/24 11:04:03;;;;;;;3.53;3.22;;;27.00;99.90;;;;;;5033142;28;20029;-78
2022/08/24 11:06:36;;;;;;;3.80;3.47;;;26.90;99.90;;;;;;5015282;28;20030;-76
2022/08/24 11:09:07;;;;;;;5.13;3.90;;;26.80;99.90;;;;;;5012295;28;20026;-76
2022/08/24 11:11:37;;;;;;;4.43;3.35;;;27.10;99.90;;;;;;5011438;28;20372;-77
2022/08/24 11:14:15;;;;;;;4.55;3.38;;;27.30;99.90;;;;;;5009658;28;20053;-76
2022/08/24 11:16:44;;;;;;;4.53;4.00;;;27.70;99.90;;;;;;5011686;28;20396;-77
2022/08/24 11:19:28;;;;;;;4.93;3.33;;;27.60;99.90;;;;;;5011911;28;20042;-76
2022/08/24 11:21:56;;;;;;;3.88;3.30;;;27.30;99.90;;;;;;5010417;28;20032;-76
2022/08/24 11:24:23;;;;;;;3.53;3.22;;;27.30;99.90;;;;;;5031872;28;20104;-76
2022/08/24 11:27:04;;;;;;;3.97;3.10;;;27.10;99.90;;;;;;5022583;28;20033;-76
2022/08/24 11:29:50;;;;;;;4.32;3.33;;;27.20;99.90;;;;;;5017682;28;20480;-76
2022/08/24 11:32:44;;;;;;;6.05;3.58;;;27.00;99.90;;;;;;5014473;28;20084;-76
2022/08/24 11:35:35;;;;;;;4.15;3.65;;;27.20;99.90;;;;;;5010581;28;20468;-76
2022/08/24 11:38:17;;;;;;;6.57;3.60;;;27.20;99.90;;;;;;4998691;28;20104;-76
2022/08/24 11:40:49;;;;;;;4.07;3.67;;;27.00;99.90;;;;;;5015404;28;20029;-76
2022/08/24 11:43:34;;;;;;;6.60;3.90;;;27.10;99.90;;;;;;5014702;28;20036;-76
2022/08/24 11:46:34;;;;;;;3.50;3.20;;;27.50;99.90;;;;;;5005736;28;20026;-76
2022/08/24 11:49:03;;;;;;;3.78;3.45;;;28.00;99.90;;;;;;4973558;28;20045;-77
2022/08/24 11:51:40;;;;;;;5.30;3.20;;;28.70;99.90;;;;;;5019158;28;20117;-76
2022/08/24 11:54:18;;;;;;;4.22;3.30;;;28.80;99.90;;;;;;4999412;28;20033;-77
2022/08/24 11:57:02;;;;;;;4.97;3.42;;;29.00;99.90;;;;;;5026047;28;20086;-76
2022/08/24 11:59:52;;;;;;;3.90;3.00;;;29.40;99.90;;;;;;5019907;28;20505;-76
2022/08/24 12:02:32;;;;;;;4.38;3.50;;;29.10;99.90;;;;;;4998682;28;20034;-77
2022/08/24 12:05:23;;;;;;;3.42;2.88;;;29.20;99.90;;;;;;5010356;28;20468;-77
2022/08/24 12:08:07;;;;;;;4.22;2.90;;;28.40;99.90;;;;;;5010339;28;20037;-77
2022/08/24 12:11:14;;;;;;;3.45;2.95;;;28.20;99.90;;;;;;4996019;28;20027;-76
2022/08/24 12:13:57;;;;;;;4.82;3.10;;;28.60;99.90;;;;;;5018621;28;20104;-76
2022/08/24 12:16:38;;;;;;;4.63;2.72;;;28.70;99.90;;;;;;5031155;28;20040;-76
2022/08/24 12:19:30;;;;;;;4.88;2.90;;;29.30;99.90;;;;;;5031216;28;20034;-76
2022/08/24 12:22:03;;;;;;;2.70;2.50;;;29.90;99.90;;;;;;5031325;28;20072;-76
2022/08/24 12:24:41;;;;;;;3.45;3.08;;;30.30;99.90;;;;;;5031111;28;20395;-76
2022/08/24 12:27:31;;;;;;;3.15;2.85;;;30.80;99.90;;;;;;5030916;28;20025;-76
2022/08/24 12:30:02;;;;;;;3.53;3.00;;;31.00;99.30;;;;;;5031164;28;20026;-76
2022/08/24 12:32:56;;;;;;;2.90;2.70;;;31.40;98.80;;;;;;5029825;28;20018;-76
2022/08/24 12:35:27;;;;;;;3.17;2.80;;;31.00;98.70;;;;;;5031094;28;20101;-76
2022/08/24 12:37:57;;;;;;;3.13;2.63;;;30.50;98.90;;;;;;5030957;28;20034;-76
2022/08/24 12:40:52;;;;;;;3.35;2.97;;;30.00;98.90;;;;;;5031325;28;20021;-76
2022/08/24 12:43:29;;;;;;;3.08;2.80;;;31.10;98.30;;;;;;5020820;28;20033;-76
2022/08/24 12:46:00;;;;;;;3.05;2.75;;;31.40;97.80;;;;;;5018089;28;20076;-76
2022/08/24 12:48:36;;;;;;;4.85;2.80;;;31.90;96.80;;;;;;5009774;28;20025;-76
2022/08/24 12:51:23;;;;;;;4.70;2.75;;;31.10;95.80;;;;;;5013933;28;20472;-76
2022/08/24 12:54:07;;;;;;;2.70;2.50;;;32.30;95.90;;;;;;5014731;28;20026;-77
2022/08/24 12:56:44;;;;;;;3.13;2.70;;;33.00;95.40;;;;;;5013523;28;20041;-76
2022/08/24 12:59:41;;;;;;;3.03;2.83;;;33.30;94.80;;;;;;5014485;28;20507;-76
2022/08/24 13:02:15;;;;;;;2.95;2.65;;;33.40;93.10;;;;;;5013356;28;20498;-76
2022/08/24 13:04:50;;;;;;;3.55;2.70;;;33.00;93.20;;;;;;5014734;28;20042;-76
2022/08/24 13:07:38;;;;;;;5.17;3.00;;;34.10;92.70;;;;;;5014413;28;20034;-76
2022/08/24 13:10:12;;;;;;;3.10;2.70;;;34.60;92.60;;;;;;5014525;28;20029;-77
2022/08/24 13:12:40;;;;;;;4.65;2.67;;;33.70;92.20;;;;;;5014523;28;20586;-77
2022/08/24 13:15:44;;;;;;;4.63;3.17;;;31.90;93.10;;;;;;5014512;28;20014;-77
2022/08/24 13:18:12;;;;;;;4.20;3.90;;;31.00;93.50;;;;;;5014214;28;20379;-76
2022/08/24 13:20:41;;;;;;;5.13;3.70;;;32.30;93.80;;;;;;5014267;28;20037;-77
2022/08/24 13:23:09;;;;;;;4.38;3.40;;;32.70;92.90;;;;;;5012908;28;20033;-77